Time;durP1;ratioP1;P1;durP2;ratioP2;P2;SDS_P1;SDS_P2;PMS_P1;PMS_P2;Temp;Humidity;BMP_temperature;BMP_pressure;BME280_temperature;BME280_humidity;BME280_pressure;Samples;Min_cycle;Max_cycle;Signal;HPM_P1;HPM_P2
2022/01/10 00:02:05;;;;;;;5.77;5.00;;;4.00;99.90;;;;;;5006630;28;20642;-56
2022/01/10 00:04:30;;;;;;;8.90;5.10;;;4.00;99.90;;;;;;5013312;28;20191;-55
2022/01/10 00:06:56;;;;;;;7.40;4.93;;;3.90;99.90;;;;;;5007129;28;20217;-55
2022/01/10 00:09:22;;;;;;;6.63;5.93;;;3.90;99.90;;;;;;5008354;28;20207;-55
2022/01/10 00:11:47;;;;;;;8.70;6.27;;;4.20;99.90;;;;;;5001715;28;20203;-56
2022/01/10 00:14:13;;;;;;;8.13;5.10;;;3.60;99.90;;;;;;4997876;28;20255;-55
2022/01/10 00:16:39;;;;;;;4.85;4.40;;;3.70;99.90;;;;;;5004726;28;20230;-55
2022/01/10 00:19:05;;;;;;;8.30;6.35;;;4.30;99.90;;;;;;5012702;28;20199;-56
2022/01/10 00:21:31;;;;;;;6.87;6.10;;;4.30;99.90;;;;;;5010601;28;20207;-55
2022/01/10 00:23:56;;;;;;;8.27;5.70;;;3.90;99.90;;;;;;5011372;28;20567;-56
2022/01/10 00:26:22;;;;;;;8.50;6.93;;;4.20;99.90;;;;;;5010552;28;20254;-56
2022/01/10 00:28:47;;;;;;;10.20;7.03;;;4.00;99.90;;;;;;5015185;28;20641;-55
2022/01/10 00:31:13;;;;;;;8.70;6.00;;;4.20;99.90;;;;;;4997702;28;20235;-55
2022/01/10 00:33:39;;;;;;;6.43;5.70;;;3.80;99.90;;;;;;5016744;28;20644;-55
2022/01/10 00:36:04;;;;;;;7.77;6.40;;;3.80;99.90;;;;;;5012979;28;20192;-56
2022/01/10 00:38:30;;;;;;;8.27;5.43;;;3.90;99.90;;;;;;5012205;28;20207;-56
2022/01/10 00:40:56;;;;;;;8.40;6.80;;;3.30;99.90;;;;;;5009754;28;20648;-55
2022/01/10 00:43:31;;;;;;;6.50;5.47;;;3.90;99.90;;;;;;5014122;28;20243;-55
2022/01/10 00:45:58;;;;;;;7.70;5.90;;;4.30;99.90;;;;;;5003836;28;20187;-55
2022/01/10 00:48:23;;;;;;;6.07;5.45;;;4.00;99.90;;;;;;5011969;28;20242;-56
2022/01/10 00:50:49;;;;;;;6.93;6.23;;;3.70;99.90;;;;;;5018380;28;20215;-55
2022/01/10 00:53:15;;;;;;;6.45;5.85;;;3.50;99.90;;;;;;5016204;28;20215;-55
2022/01/10 00:55:42;;;;;;;7.35;5.60;;;4.10;99.90;;;;;;5008455;28;20562;-56
2022/01/10 00:58:08;;;;;;;7.50;5.60;;;4.00;99.90;;;;;;5014821;28;20185;-55
2022/01/10 01:00:34;;;;;;;7.87;7.03;;;3.40;99.90;;;;;;5005751;28;20247;-55
2022/01/10 01:02:59;;;;;;;7.28;6.35;;;4.10;99.90;;;;;;5012499;28;20446;-55
2022/01/10 01:05:27;;;;;;;6.93;5.90;;;4.10;99.90;;;;;;5009228;28;20183;-55
2022/01/10 01:07:53;;;;;;;8.88;5.68;;;4.00;99.90;;;;;;5014247;28;20187;-55
2022/01/10 01:13:28;;;;;;;6.70;6.10;;;3.60;99.90;;;;;;5016451;28;20448;-55
2022/01/10 01:26:32;;;;;;;7.05;5.10;;;4.00;99.90;;;;;;5015436;28;20183;-55
2022/01/10 01:28:58;;;;;;;6.47;5.28;;;4.10;99.90;;;;;;4991385;28;20582;-55
2022/01/10 01:31:24;;;;;;;5.97;5.37;;;4.30;99.90;;;;;;5001776;28;20207;-56
2022/01/10 01:33:50;;;;;;;8.43;5.28;;;4.10;99.90;;;;;;5015313;28;20434;-55
2022/01/10 01:36:21;;;;;;;7.50;5.28;;;4.00;99.90;;;;;;5010255;28;20194;-55
2022/01/10 01:38:47;;;;;;;8.32;6.20;;;4.00;99.90;;;;;;5016043;28;20179;-55
2022/01/10 01:41:23;;;;;;;6.20;5.60;;;4.10;99.90;;;;;;5011089;28;20669;-55
2022/01/10 01:43:51;;;;;;;6.35;5.65;;;4.20;99.90;;;;;;5000400;28;20663;-55
2022/01/10 01:46:17;;;;;;;8.40;7.03;;;4.20;99.90;;;;;;5005016;28;20183;-56
2022/01/10 01:48:43;;;;;;;9.20;6.50;;;4.00;99.90;;;;;;5006480;28;20635;-56
2022/01/10 01:51:09;;;;;;;8.10;6.30;;;4.10;99.90;;;;;;5013067;28;20838;-57
2022/01/10 01:53:36;;;;;;;8.50;6.70;;;4.10;99.90;;;;;;5010292;28;20198;-56
2022/01/10 01:56:04;;;;;;;9.40;6.10;;;4.20;99.90;;;;;;5007900;28;20184;-55
2022/01/10 01:58:31;;;;;;;8.38;5.85;;;4.00;99.90;;;;;;5010942;28;20180;-56
2022/01/10 02:00:56;;;;;;;8.82;6.10;;;4.00;99.90;;;;;;5000439;28;20551;-55
2022/01/10 02:03:22;;;;;;;8.60;5.80;;;4.00;99.90;;;;;;5014797;28;20198;-55
2022/01/10 02:05:48;;;;;;;10.17;6.40;;;3.80;99.90;;;;;;5011281;28;20191;-55
2022/01/10 02:08:13;;;;;;;5.60;4.80;;;4.10;99.90;;;;;;5005773;28;20245;-56
2022/01/10 02:10:39;;;;;;;4.83;4.33;;;3.60;99.90;;;;;;5011789;28;20294;-55
2022/01/10 02:13:05;;;;;;;5.23;4.43;;;3.90;99.90;;;;;;5013542;28;20651;-55
2022/01/10 02:15:58;;;;;;;7.90;5.23;;;3.90;99.90;;;;;;5008403;28;20956;-55
2022/01/10 02:18:22;;;;;;;8.75;5.28;;;3.90;99.90;;;;;;5007347;28;20182;-55
2022/01/10 02:20:47;;;;;;;6.00;5.33;;;4.00;99.90;;;;;;5008578;28;20261;-55
2022/01/10 02:23:15;;;;;;;7.33;5.40;;;4.10;99.90;;;;;;5007582;28;20453;-55
2022/01/10 02:25:42;;;;;;;7.75;5.63;;;4.10;99.90;;;;;;5009079;28;20192;-55
2022/01/10 02:28:08;;;;;;;7.40;6.07;;;4.10;99.90;;;;;;5000411;28;20687;-56
2022/01/10 02:30:33;;;;;;;7.47;5.27;;;4.30;99.90;;;;;;4998698;28;20212;-56
2022/01/10 02:33:01;;;;;;;6.60;5.47;;;4.20;99.90;;;;;;5010200;28;20230;-55
2022/01/10 02:35:43;;;;;;;6.15;5.38;;;3.50;99.90;;;;;;5005109;28;20188;-55
2022/01/10 02:38:09;;;;;;;5.57;4.60;;;3.30;99.90;;;;;;5004721;28;20603;-56
2022/01/10 02:40:35;;;;;;;7.63;5.20;;;3.40;99.90;;;;;;4997956;28;20299;-55
2022/01/10 02:43:05;;;;;;;5.80;5.20;;;4.00;99.90;;;;;;5004420;28;20599;-55
2022/01/10 02:45:31;;;;;;;7.53;4.85;;;3.90;99.90;;;;;;5000591;28;20796;-55
2022/01/10 02:47:57;;;;;;;6.20;5.10;;;4.10;99.90;;;;;;5006014;28;20180;-55
2022/01/10 02:50:22;;;;;;;7.80;5.20;;;4.10;99.90;;;;;;5011769;28;20632;-56
2022/01/10 02:52:48;;;;;;;6.17;4.60;;;3.90;99.90;;;;;;5011088;28;20201;-55
2022/01/10 02:55:14;;;;;;;5.40;4.90;;;3.60;99.90;;;;;;5007461;28;20653;-56
2022/01/10 02:57:41;;;;;;;6.88;5.30;;;4.00;99.90;;;;;;4997723;28;20196;-56
2022/01/10 03:00:13;;;;;;;5.28;4.78;;;4.00;99.90;;;;;;5000255;28;20200;-55
2022/01/10 03:02:41;;;;;;;8.32;5.40;;;3.80;99.90;;;;;;5008702;28;20680;-56
2022/01/10 03:05:07;;;;;;;6.78;5.60;;;3.90;99.90;;;;;;5003155;28;20273;-55
2022/01/10 03:07:33;;;;;;;6.88;5.70;;;3.90;99.90;;;;;;4999115;28;20744;-56
2022/01/10 03:09:59;;;;;;;7.97;5.40;;;4.00;99.90;;;;;;5008152;28;20221;-56
2022/01/10 03:12:25;;;;;;;9.93;5.50;;;4.30;99.90;;;;;;4996473;28;20458;-55
2022/01/10 03:14:51;;;;;;;9.23;6.60;;;4.20;99.90;;;;;;4999403;28;20665;-55
2022/01/10 03:17:17;;;;;;;6.00;5.07;;;4.30;99.90;;;;;;5006851;28;20180;-55
2022/01/10 03:19:43;;;;;;;11.00;6.10;;;4.20;99.90;;;;;;4994668;28;20482;-55
2022/01/10 03:22:10;;;;;;;6.32;5.57;;;3.90;99.90;;;;;;5007929;28;20432;-55
2022/01/10 03:24:36;;;;;;;8.10;6.10;;;4.10;99.90;;;;;;5003863;28;20287;-55
2022/01/10 03:27:02;;;;;;;7.53;5.25;;;4.10;99.90;;;;;;5004570;28;20184;-55
2022/01/10 03:29:28;;;;;;;5.40;4.00;;;4.20;99.90;;;;;;4996641;28;20208;-55
2022/01/10 03:31:54;;;;;;;5.30;4.47;;;4.50;99.90;;;;;;4999550;28;20473;-56
2022/01/10 03:34:19;;;;;;;5.15;4.65;;;4.50;99.90;;;;;;4998063;28;20972;-56
2022/01/10 03:36:46;;;;;;;5.40;4.80;;;4.20;99.90;;;;;;5007875;28;20195;-56
2022/01/10 03:39:12;;;;;;;6.50;5.35;;;4.40;99.90;;;;;;5004065;28;20943;-55
2022/01/10 03:41:39;;;;;;;5.93;4.80;;;4.30;99.90;;;;;;5001762;28;20559;-55
2022/01/10 03:44:05;;;;;;;5.55;4.03;;;4.20;99.90;;;;;;5008892;28;20196;-56
2022/01/10 03:46:34;;;;;;;9.40;4.43;;;4.30;99.90;;;;;;5004507;28;20215;-55
2022/01/10 03:49:01;;;;;;;7.63;4.40;;;4.20;99.90;;;;;;5001149;28;20617;-55
2022/01/10 03:51:27;;;;;;;5.60;3.75;;;4.20;99.90;;;;;;5004536;28;20211;-55
2022/01/10 03:53:54;;;;;;;5.88;4.20;;;4.10;99.90;;;;;;5007984;28;20187;-55
2022/01/10 03:56:21;;;;;;;8.50;4.78;;;3.50;99.90;;;;;;5009886;28;20708;-55
2022/01/10 03:58:46;;;;;;;7.05;5.03;;;4.20;99.90;;;;;;5003434;28;20477;-56
2022/01/10 04:01:13;;;;;;;4.87;4.30;;;4.10;99.90;;;;;;5005120;28;20198;-56
2022/01/10 04:03:39;;;;;;;6.38;4.55;;;4.40;99.90;;;;;;5004016;28;20191;-55
2022/01/10 04:06:05;;;;;;;5.40;4.90;;;3.90;99.90;;;;;;5007697;28;20188;-55
2022/01/10 04:08:32;;;;;;;5.75;4.55;;;4.30;99.90;;;;;;5010396;28;20265;-56
2022/01/10 04:10:58;;;;;;;8.57;5.15;;;4.20;99.90;;;;;;5008221;28;20214;-56
2022/01/10 04:13:23;;;;;;;4.68;3.95;;;4.30;99.90;;;;;;5006629;28;20180;-55
2022/01/10 04:15:50;;;;;;;5.30;4.20;;;4.40;99.90;;;;;;5009944;28;20184;-55
2022/01/10 04:18:16;;;;;;;4.93;4.13;;;4.40;99.90;;;;;;5007386;28;20249;-55
2022/01/10 04:20:43;;;;;;;4.73;4.23;;;4.30;99.90;;;;;;5002040;28;20767;-56
2022/01/10 04:23:10;;;;;;;6.63;4.60;;;4.60;99.90;;;;;;5003679;28;20598;-55
2022/01/10 04:25:36;;;;;;;6.18;4.35;;;4.30;99.90;;;;;;5009217;28;20196;-55
2022/01/10 04:28:02;;;;;;;6.43;4.20;;;4.40;99.90;;;;;;5007573;28;20519;-55
2022/01/10 04:30:27;;;;;;;5.18;4.50;;;4.60;99.90;;;;;;4997850;28;20401;-56
2022/01/10 04:32:53;;;;;;;7.83;5.50;;;4.60;99.90;;;;;;5008194;28;20536;-55
2022/01/10 04:35:19;;;;;;;7.10;4.30;;;4.70;99.90;;;;;;5006984;28;20175;-56
2022/01/10 04:37:45;;;;;;;6.27;4.63;;;4.10;99.90;;;;;;5001487;28;20443;-55
2022/01/10 04:40:12;;;;;;;6.60;5.00;;;4.60;99.90;;;;;;5003744;28;20697;-55
2022/01/10 04:42:37;;;;;;;10.95;5.60;;;4.50;99.90;;;;;;5006760;28;20447;-56
2022/01/10 04:45:03;;;;;;;8.63;6.00;;;4.70;99.90;;;;;;4996979;28;20197;-56
2022/01/10 04:47:29;;;;;;;10.50;6.55;;;4.90;99.90;;;;;;5000840;28;20186;-56
2022/01/10 04:52:30;;;;;;;8.98;5.70;;;4.20;99.90;;;;;;5005785;28;20692;-55
2022/01/10 04:54:56;;;;;;;11.60;6.47;;;4.80;99.90;;;;;;5010442;28;20188;-57
2022/01/10 04:57:22;;;;;;;9.85;6.80;;;4.80;99.90;;;;;;4999079;28;20256;-57
2022/01/10 04:59:48;;;;;;;12.03;8.00;;;5.00;99.90;;;;;;5002804;28;20295;-56
2022/01/10 05:02:14;;;;;;;9.45;7.50;;;5.00;99.90;;;;;;4994717;28;20810;-56
2022/01/10 05:04:40;;;;;;;13.17;7.50;;;5.00;99.90;;;;;;5006656;28;20189;-56
2022/01/10 05:07:06;;;;;;;8.40;7.05;;;4.70;99.90;;;;;;5013944;28;20434;-56
2022/01/10 05:09:32;;;;;;;13.93;7.50;;;4.80;99.90;;;;;;5004270;28;20218;-56
2022/01/10 05:11:58;;;;;;;11.43;8.00;;;4.90;99.90;;;;;;5006982;28;20676;-56
2022/01/10 05:14:24;;;;;;;12.88;8.32;;;5.00;99.90;;;;;;5008643;28;20230;-55
2022/01/10 05:16:50;;;;;;;8.80;7.45;;;4.90;99.90;;;;;;5011320;28;20267;-55
2022/01/10 05:19:16;;;;;;;10.47;7.70;;;4.90;99.90;;;;;;5016669;28;20274;-56
2022/01/10 05:21:41;;;;;;;11.27;7.53;;;4.50;99.90;;;;;;5012760;28;20217;-56
2022/01/10 05:24:07;;;;;;;12.07;7.13;;;5.10;99.90;;;;;;5008595;28;20219;-57
2022/01/10 05:26:34;;;;;;;14.13;8.50;;;5.10;99.90;;;;;;5016438;28;20184;-56
2022/01/10 05:29:01;;;;;;;10.85;6.80;;;4.70;99.90;;;;;;5008102;28;20250;-56
2022/01/10 05:31:33;;;;;;;10.95;8.10;;;4.40;99.90;;;;;;5001604;28;20227;-56
2022/01/10 05:33:59;;;;;;;13.02;7.97;;;4.50;99.90;;;;;;5007299;28;20674;-55
2022/01/10 05:36:25;;;;;;;10.43;7.50;;;5.00;99.90;;;;;;5008185;28;20180;-55
2022/01/10 05:38:51;;;;;;;12.52;7.95;;;4.80;99.90;;;;;;4997863;28;20626;-54
2022/01/10 05:41:17;;;;;;;9.67;7.37;;;4.80;99.90;;;;;;5002801;28;20272;-56
2022/01/10 05:43:43;;;;;;;11.55;6.93;;;5.00;99.90;;;;;;5008473;28;20209;-56
2022/01/10 05:46:12;;;;;;;9.32;8.05;;;4.90;99.90;;;;;;5009017;28;20193;-56
2022/01/10 05:48:40;;;;;;;11.73;8.57;;;5.20;99.90;;;;;;5015738;28;20200;-55
2022/01/10 05:51:07;;;;;;;15.10;8.90;;;4.10;99.90;;;;;;5010668;28;20242;-55
2022/01/10 05:53:33;;;;;;;12.27;7.45;;;4.30;99.90;;;;;;5005811;28;20191;-55
2022/01/10 05:55:58;;;;;;;12.80;8.80;;;4.80;99.90;;;;;;5006521;28;20184;-55
2022/01/10 05:58:26;;;;;;;10.70;7.73;;;4.70;99.90;;;;;;5003540;28;20311;-56
2022/01/10 06:00:52;;;;;;;13.20;8.98;;;4.60;99.90;;;;;;5006099;28;20199;-56
2022/01/10 06:03:17;;;;;;;15.93;8.37;;;4.30;99.90;;;;;;5009884;28;20201;-55
2022/01/10 06:05:43;;;;;;;11.73;9.07;;;5.00;99.90;;;;;;5013420;28;20446;-57
2022/01/10 06:08:09;;;;;;;8.90;7.07;;;5.10;99.90;;;;;;5006454;28;20192;-55
2022/01/10 06:10:36;;;;;;;13.07;9.10;;;5.00;99.90;;;;;;4995355;28;20528;-55
2022/01/10 06:13:01;;;;;;;10.90;8.27;;;5.20;99.90;;;;;;5012036;28;20181;-56
2022/01/10 06:15:27;;;;;;;10.17;7.37;;;4.90;99.90;;;;;;4999051;28;20637;-55
2022/01/10 06:17:53;;;;;;;12.43;8.43;;;5.10;99.90;;;;;;5004361;28;20529;-56
2022/01/10 06:20:19;;;;;;;11.48;7.90;;;5.10;99.90;;;;;;5012596;28;20201;-55
2022/01/10 06:22:45;;;;;;;12.83;8.87;;;4.60;99.90;;;;;;5008582;28;20686;-55
2022/01/10 06:25:14;;;;;;;9.97;7.53;;;5.00;99.90;;;;;;4999701;28;21002;-55
2022/01/10 06:27:40;;;;;;;11.90;8.27;;;5.20;99.90;;;;;;5008395;28;20532;-55
2022/01/10 06:30:07;;;;;;;11.70;8.27;;;4.90;99.90;;;;;;5003141;28;20212;-55
2022/01/10 06:32:32;;;;;;;16.95;9.52;;;4.90;99.90;;;;;;5011773;28;20844;-55
2022/01/10 06:34:58;;;;;;;14.80;9.60;;;4.60;99.90;;;;;;4998989;28;20205;-55
2022/01/10 06:37:25;;;;;;;15.83;9.57;;;5.00;99.90;;;;;;5010818;28;20189;-55
2022/01/10 06:39:51;;;;;;;13.27;9.07;;;4.20;99.90;;;;;;4998412;28;20212;-55
2022/01/10 06:42:17;;;;;;;15.10;10.40;;;5.00;99.90;;;;;;5009103;28;20187;-55
2022/01/10 06:44:43;;;;;;;16.08;10.50;;;5.00;99.90;;;;;;4997176;28;20263;-55
2022/01/10 06:47:09;;;;;;;11.73;9.57;;;5.20;99.90;;;;;;4996324;28;20274;-55
2022/01/10 06:49:34;;;;;;;15.20;10.07;;;5.20;99.90;;;;;;5001654;28;20219;-55
2022/01/10 06:52:01;;;;;;;11.00;9.03;;;5.10;99.90;;;;;;5007073;28;20235;-53
2022/01/10 06:54:27;;;;;;;11.70;9.18;;;4.80;99.90;;;;;;5004881;28;20649;-55
2022/01/10 06:56:52;;;;;;;11.97;9.30;;;4.90;99.90;;;;;;5008880;28;20263;-55
2022/01/10 06:59:18;;;;;;;16.43;10.03;;;5.00;99.90;;;;;;5017929;28;20459;-55
2022/01/10 07:01:45;;;;;;;14.43;10.32;;;4.90;99.90;;;;;;4994740;28;20544;-54
2022/01/10 07:04:11;;;;;;;12.50;9.63;;;4.90;99.90;;;;;;5002323;28;20632;-55
2022/01/10 07:06:37;;;;;;;12.97;9.80;;;5.00;99.90;;;;;;5014179;28;20294;-53
2022/01/10 07:09:03;;;;;;;18.50;10.25;;;5.30;99.90;;;;;;5010598;28;20491;-55
2022/01/10 07:11:28;;;;;;;14.05;10.60;;;5.10;99.90;;;;;;5009859;28;20231;-55
2022/01/10 07:13:54;;;;;;;19.47;12.90;;;4.90;99.90;;;;;;5008834;28;20356;-55
2022/01/10 07:16:20;;;;;;;19.77;11.90;;;4.90;99.90;;;;;;5002599;28;20176;-55
2022/01/10 07:18:46;;;;;;;24.27;12.07;;;5.00;99.90;;;;;;5001992;28;20276;-55
2022/01/10 07:21:11;;;;;;;21.47;11.97;;;5.10;99.90;;;;;;4998650;28;20448;-55
2022/01/10 07:23:37;;;;;;;13.27;9.73;;;5.10;99.90;;;;;;5005813;28;20195;-54
2022/01/10 07:26:03;;;;;;;15.10;9.43;;;5.30;99.90;;;;;;5003545;28;20201;-55
2022/01/10 07:28:28;;;;;;;17.30;10.40;;;5.30;99.90;;;;;;5009419;28;20573;-54
2022/01/10 07:30:55;;;;;;;15.47;10.90;;;4.70;99.90;;;;;;5004794;28;20467;-54
2022/01/10 07:33:21;;;;;;;16.42;10.98;;;4.90;99.90;;;;;;5007042;28;20185;-55
2022/01/10 07:35:46;;;;;;;14.37;10.77;;;4.70;99.90;;;;;;4990926;28;20468;-55
2022/01/10 07:38:12;;;;;;;18.23;11.03;;;4.90;99.90;;;;;;5006305;28;20446;-53
2022/01/10 07:40:38;;;;;;;16.20;10.60;;;4.90;99.90;;;;;;5006482;28;20206;-53
2022/01/10 07:43:03;;;;;;;15.90;11.03;;;4.80;99.90;;;;;;5007029;28;20193;-54
2022/01/10 07:45:29;;;;;;;17.87;10.80;;;4.90;99.90;;;;;;5006727;28;20578;-54
2022/01/10 07:47:55;;;;;;;14.83;10.20;;;5.20;99.90;;;;;;5012052;28;20193;-53
2022/01/10 07:50:20;;;;;;;15.70;9.50;;;5.20;99.90;;;;;;5012771;28;20219;-54
2022/01/10 07:52:46;;;;;;;14.00;9.80;;;5.20;99.90;;;;;;5011083;28;20685;-54
2022/01/10 07:55:12;;;;;;;17.63;11.20;;;5.00;99.90;;;;;;5003000;28;20271;-54
2022/01/10 07:57:38;;;;;;;14.13;10.20;;;4.90;99.90;;;;;;5011801;28;20203;-54
2022/01/10 08:00:05;;;;;;;19.57;12.97;;;4.70;99.90;;;;;;5003025;28;21043;-54
2022/01/10 08:02:31;;;;;;;17.70;12.13;;;5.10;99.90;;;;;;4995673;28;20185;-54
2022/01/10 08:04:57;;;;;;;16.37;11.03;;;4.90;99.90;;;;;;4998148;28;20192;-54
2022/01/10 08:07:23;;;;;;;25.80;13.67;;;5.00;99.90;;;;;;5005081;28;20195;-53
2022/01/10 08:09:48;;;;;;;19.57;11.97;;;5.00;99.90;;;;;;4996684;28;20510;-54
2022/01/10 08:12:14;;;;;;;15.87;10.53;;;5.20;99.90;;;;;;5000357;28;20215;-54
2022/01/10 08:14:41;;;;;;;15.63;10.33;;;5.30;99.90;;;;;;4996908;28;20237;-54
2022/01/10 08:17:06;;;;;;;15.02;9.95;;;5.30;99.90;;;;;;5002094;28;20207;-54
2022/01/10 08:19:34;;;;;;;16.83;9.77;;;5.20;99.90;;;;;;5007929;28;20268;-54
2022/01/10 08:22:01;;;;;;;16.80;10.55;;;5.00;99.90;;;;;;5001085;28;20558;-53
2022/01/10 08:24:27;;;;;;;11.82;9.45;;;5.10;99.90;;;;;;5004913;28;20201;-53
2022/01/10 08:26:54;;;;;;;11.80;9.40;;;5.20;99.90;;;;;;5005164;28;20193;-55
2022/01/10 08:29:19;;;;;;;18.10;10.55;;;5.00;99.90;;;;;;4992571;28;20219;-53
2022/01/10 08:31:45;;;;;;;15.10;11.03;;;4.60;99.90;;;;;;5004194;28;20202;-53
2022/01/10 08:34:12;;;;;;;16.30;11.05;;;4.40;99.90;;;;;;5010001;28;20703;-57
2022/01/10 08:36:37;;;;;;;17.42;12.35;;;5.20;99.90;;;;;;5007300;28;20196;-55
2022/01/10 08:39:05;;;;;;;18.60;12.10;;;5.40;99.90;;;;;;4999434;28;20205;-55
2022/01/10 08:41:30;;;;;;;14.80;10.32;;;5.20;99.90;;;;;;5005191;28;20244;-57
2022/01/10 08:43:56;;;;;;;13.60;10.63;;;5.10;99.90;;;;;;5005890;28;20681;-58
2022/01/10 08:46:22;;;;;;;15.00;10.10;;;4.70;99.90;;;;;;5005509;28;20443;-56
2022/01/10 08:48:50;;;;;;;16.90;10.63;;;4.80;99.90;;;;;;5003511;28;20315;-56
2022/01/10 08:51:16;;;;;;;14.60;10.07;;;5.20;99.90;;;;;;5011228;28;20659;-56
2022/01/10 08:53:41;;;;;;;15.10;10.27;;;5.30;99.90;;;;;;5007008;28;20192;-56
2022/01/10 08:56:07;;;;;;;17.43;12.00;;;4.50;99.90;;;;;;4999154;28;21433;-56
2022/01/10 08:58:33;;;;;;;14.07;10.60;;;5.30;99.90;;;;;;5008825;28;20267;-57
2022/01/10 09:01:00;;;;;;;16.17;11.33;;;5.00;99.90;;;;;;4997991;28;20219;-55
2022/01/10 09:03:26;;;;;;;15.50;10.90;;;5.30;99.90;;;;;;5005126;28;20532;-56
2022/01/10 09:05:54;;;;;;;17.13;11.30;;;5.30;99.90;;;;;;5011773;28;20185;-56
2022/01/10 09:08:20;;;;;;;18.25;11.30;;;5.20;99.90;;;;;;5012928;28;20851;-56
2022/01/10 09:10:46;;;;;;;16.40;11.88;;;5.50;99.90;;;;;;5001685;28;20221;-58
2022/01/10 09:13:11;;;;;;;18.50;10.97;;;5.60;99.90;;;;;;5011006;28;20201;-56
2022/01/10 09:15:38;;;;;;;18.33;12.30;;;5.30;99.90;;;;;;5003116;28;20738;-55
2022/01/10 09:18:04;;;;;;;18.55;11.73;;;5.30;99.90;;;;;;5011073;28;20271;-56
2022/01/10 09:20:29;;;;;;;15.80;12.23;;;5.60;99.90;;;;;;5009183;28;20203;-57
2022/01/10 09:22:55;;;;;;;20.87;12.37;;;5.80;99.90;;;;;;5010536;28;20189;-56
2022/01/10 09:25:22;;;;;;;15.67;11.37;;;5.70;99.90;;;;;;5006353;28;20537;-56
2022/01/10 09:27:48;;;;;;;21.90;12.07;;;5.50;99.90;;;;;;4999639;28;20471;-55
2022/01/10 09:30:14;;;;;;;17.17;11.73;;;5.50;99.90;;;;;;5001485;28;20699;-58
2022/01/10 09:32:40;;;;;;;18.52;11.65;;;5.60;99.90;;;;;;4994009;28;20566;-55
2022/01/10 09:35:07;;;;;;;15.52;11.38;;;5.50;99.90;;;;;;5009474;28;20186;-57
2022/01/10 09:37:32;;;;;;;17.83;11.65;;;5.60;99.90;;;;;;5019098;28;20188;-56
2022/01/10 09:39:58;;;;;;;18.33;11.73;;;5.60;99.90;;;;;;5015530;28;20575;-56
2022/01/10 09:42:24;;;;;;;13.60;10.90;;;5.70;99.90;;;;;;5008260;28;20192;-56
2022/01/10 09:44:51;;;;;;;18.40;11.93;;;6.00;99.90;;;;;;5016610;28;20765;-56
2022/01/10 09:47:17;;;;;;;14.85;10.50;;;5.60;99.90;;;;;;4998376;28;20221;-56
2022/01/10 09:49:42;;;;;;;13.88;10.05;;;5.60;99.90;;;;;;5010697;28;20592;-56
2022/01/10 09:52:09;;;;;;;14.83;10.20;;;5.60;99.90;;;;;;5008275;28;20207;-57
2022/01/10 09:54:35;;;;;;;14.18;10.23;;;5.70;99.90;;;;;;5011346;28;20186;-56
2022/01/10 09:57:00;;;;;;;15.13;10.75;;;5.90;99.90;;;;;;5006423;28;20913;-56
2022/01/10 09:59:26;;;;;;;16.67;11.93;;;5.60;99.90;;;;;;5002552;28;20213;-56
2022/01/10 10:01:52;;;;;;;20.27;11.37;;;5.30;99.90;;;;;;4993636;28;20187;-56
2022/01/10 10:04:19;;;;;;;18.85;12.48;;;4.80;99.90;;;;;;4997671;28;20187;-56
2022/01/10 10:06:45;;;;;;;16.83;10.50;;;5.40;99.90;;;;;;5025252;28;20224;-56
2022/01/10 10:09:11;;;;;;;19.42;12.20;;;5.80;99.90;;;;;;5009930;28;20701;-56
2022/01/10 10:11:47;;;;;;;15.83;11.47;;;5.70;99.90;;;;;;5002696;28;20243;-56
2022/01/10 10:14:17;;;;;;;14.82;11.50;;;5.80;99.90;;;;;;5018886;28;20186;-55
2022/01/10 10:16:49;;;;;;;18.33;12.55;;;6.20;99.90;;;;;;5001071;28;20179;-56
2022/01/10 10:19:34;;;;;;;15.50;11.00;;;6.20;99.90;;;;;;5013086;28;20198;-57
2022/01/10 10:22:00;;;;;;;13.93;10.75;;;6.10;99.90;;;;;;5002302;28;20286;-55
2022/01/10 10:24:27;;;;;;;13.57;10.23;;;6.20;99.90;;;;;;5010652;28;20283;-55
2022/01/10 10:26:53;;;;;;;17.45;10.68;;;6.10;99.90;;;;;;5014712;28;20836;-55
2022/01/10 10:29:20;;;;;;;17.23;10.90;;;6.00;99.90;;;;;;5005616;28;20210;-55
2022/01/10 10:31:50;;;;;;;17.67;10.35;;;6.20;99.90;;;;;;5012439;28;20212;-57
2022/01/10 10:34:23;;;;;;;17.83;11.93;;;6.40;99.90;;;;;;4998571;28;20187;-56
2022/01/10 10:37:06;;;;;;;14.40;11.77;;;6.60;99.90;;;;;;4993240;28;22728;-55
2022/01/10 10:39:35;;;;;;;14.75;10.68;;;6.40;99.90;;;;;;5009030;28;20245;-54
2022/01/10 10:42:04;;;;;;;13.05;10.55;;;6.50;99.90;;;;;;5001066;28;20456;-55
2022/01/10 10:44:30;;;;;;;13.10;9.70;;;6.60;99.90;;;;;;5002045;28;20189;-56
2022/01/10 10:46:56;;;;;;;17.40;10.52;;;6.60;99.90;;;;;;5005464;28;20240;-56
2022/01/10 10:49:30;;;;;;;15.38;10.25;;;6.40;99.90;;;;;;5009458;28;20211;-57
2022/01/10 10:51:57;;;;;;;16.40;11.52;;;6.10;99.90;;;;;;5010265;28;20210;-55
2022/01/10 10:54:24;;;;;;;15.35;9.68;;;6.20;99.90;;;;;;5013184;28;20182;-56
2022/01/10 10:56:49;;;;;;;15.25;9.35;;;6.30;99.90;;;;;;4999815;28;20180;-54
2022/01/10 10:59:15;;;;;;;16.40;10.77;;;6.30;99.90;;;;;;5012313;28;20837;-53
2022/01/10 11:01:42;;;;;;;15.67;11.13;;;6.10;99.90;;;;;;5007852;28;20472;-56
2022/01/10 11:04:10;;;;;;;13.38;10.50;;;6.40;99.90;;;;;;5005802;28;20461;-54
2022/01/10 11:06:37;;;;;;;14.18;10.05;;;6.20;99.90;;;;;;5005482;28;20186;-56
2022/01/10 11:09:06;;;;;;;19.88;12.35;;;6.40;99.90;;;;;;5014170;28;20288;-56
2022/01/10 11:11:32;;;;;;;15.68;9.30;;;6.30;99.90;;;;;;5001570;28;20208;-56
2022/01/10 11:14:00;;;;;;;15.32;9.93;;;6.40;99.90;;;;;;5007425;28;20248;-55
2022/01/10 11:16:27;;;;;;;14.40;10.00;;;6.70;99.90;;;;;;5002242;28;20189;-57
2022/01/10 11:18:54;;;;;;;16.70;11.65;;;6.60;99.90;;;;;;5006105;28;20184;-56
2022/01/10 11:21:22;;;;;;;13.77;8.13;;;6.80;99.90;;;;;;5003297;28;20246;-56
2022/01/10 11:23:50;;;;;;;12.63;9.00;;;6.60;99.90;;;;;;5012785;28;20222;-57
2022/01/10 11:26:17;;;;;;;13.32;8.20;;;7.00;99.90;;;;;;5010196;28;20671;-57
2022/01/10 11:28:55;;;;;;;12.15;8.88;;;6.80;99.90;;;;;;4999611;28;20206;-56
2022/01/10 11:31:27;;;;;;;11.90;10.38;;;7.20;99.90;;;;;;5000939;28;20229;-56
2022/01/10 11:33:56;;;;;;;12.23;9.48;;;7.30;99.90;;;;;;5009792;28;20197;-57
2022/01/10 11:36:26;;;;;;;13.68;9.82;;;7.40;99.90;;;;;;5010122;28;20252;-56
2022/01/10 11:38:54;;;;;;;13.75;9.55;;;7.20;99.90;;;;;;5020941;28;20201;-57
2022/01/10 11:41:23;;;;;;;12.65;8.27;;;7.20;99.90;;;;;;5015226;28;20581;-57
2022/01/10 11:44:11;;;;;;;11.13;9.57;;;7.40;99.90;;;;;;5014923;28;20239;-57
2022/01/10 11:46:41;;;;;;;14.18;10.00;;;7.70;99.90;;;;;;5010033;28;20223;-57
2022/01/10 11:49:13;;;;;;;12.40;9.50;;;7.60;99.90;;;;;;5002987;28;20287;-56
2022/01/10 11:51:43;;;;;;;11.63;8.15;;;7.70;99.90;;;;;;5011907;28;20222;-58
2022/01/10 11:54:22;;;;;;;13.77;8.40;;;7.70;99.90;;;;;;5009220;28;20527;-56
2022/01/10 11:56:47;;;;;;;15.85;9.57;;;7.60;99.90;;;;;;5007514;28;20194;-58
2022/01/10 11:59:23;;;;;;;22.70;10.90;;;7.60;99.90;;;;;;4987091;28;20704;-58
2022/01/10 12:01:53;;;;;;;13.02;9.70;;;7.70;99.90;;;;;;5004630;28;20190;-58
2022/01/10 12:04:20;;;;;;;14.88;10.15;;;6.70;99.90;;;;;;4999658;28;20241;-57
2022/01/10 12:06:47;;;;;;;16.80;10.30;;;7.30;99.90;;;;;;5004854;28;20198;-58
2022/01/10 12:09:14;;;;;;;15.43;10.13;;;7.60;99.90;;;;;;5001758;28;20257;-58
2022/01/10 12:11:40;;;;;;;15.77;10.25;;;7.70;99.90;;;;;;5005527;28;20536;-57
2022/01/10 12:14:08;;;;;;;20.17;11.48;;;7.70;99.90;;;;;;5007471;28;20198;-57
2022/01/10 12:16:35;;;;;;;15.10;11.52;;;7.50;99.90;;;;;;5003545;28;20209;-58
2022/01/10 12:19:03;;;;;;;13.00;9.57;;;7.60;99.90;;;;;;5004433;28;20257;-57
2022/01/10 12:21:29;;;;;;;14.38;9.82;;;7.90;99.90;;;;;;5005029;28;20314;-59
2022/01/10 12:23:54;;;;;;;15.18;10.43;;;8.20;99.90;;;;;;4997607;28;20265;-56
2022/01/10 12:26:22;;;;;;;12.43;9.93;;;8.00;99.90;;;;;;5003943;28;20266;-56
2022/01/10 12:28:53;;;;;;;15.05;10.90;;;8.00;99.90;;;;;;5009158;28;20632;-56
2022/01/10 12:31:23;;;;;;;14.68;10.00;;;8.00;99.90;;;;;;5005229;28;20249;-57
2022/01/10 12:33:51;;;;;;;14.65;11.40;;;7.60;99.90;;;;;;5005037;28;20648;-57
2022/01/10 12:36:22;;;;;;;15.63;9.93;;;7.40;99.90;;;;;;5005679;28;20674;-57
2022/01/10 12:38:54;;;;;;;12.32;10.30;;;7.20;99.90;;;;;;4999570;28;20635;-56
2022/01/10 12:41:20;;;;;;;14.35;9.75;;;7.40;99.90;;;;;;5007029;28;20216;-56
2022/01/10 12:43:49;;;;;;;12.85;10.05;;;7.50;99.90;;;;;;5005732;28;20603;-56
2022/01/10 12:46:19;;;;;;;13.50;9.52;;;7.60;99.90;;;;;;5003067;28;20186;-57
2022/01/10 12:48:47;;;;;;;12.77;9.65;;;7.40;99.90;;;;;;5006006;28;20287;-56
2022/01/10 12:51:20;;;;;;;13.82;9.60;;;7.10;99.90;;;;;;5000895;28;20215;-56
2022/01/10 12:53:48;;;;;;;17.42;10.93;;;6.70;99.90;;;;;;5001132;28;20277;-57
2022/01/10 12:56:18;;;;;;;15.38;11.80;;;6.80;99.90;;;;;;5003043;28;20595;-57
2022/01/10 12:58:44;;;;;;;14.13;10.60;;;7.20;99.90;;;;;;5001576;28;20282;-56
2022/01/10 13:01:11;;;;;;;14.70;11.00;;;7.20;99.90;;;;;;5002296;28;20187;-55
2022/01/10 13:03:38;;;;;;;14.38;11.25;;;7.00;99.90;;;;;;5010047;28;20187;-56